sensor_id;sensor_type;location;lat;lon;timestamp;pressure;altitude;pressure_sealevel;temperature;humidity
10716;BME280;5409;42.620;23.316;2022-10-16T00:01:06;92832.00;;;7.34;100.00
10716;BME280;5409;42.620;23.316;2022-10-16T00:03:34;92825.47;;;7.28;100.00
10716;BME280;5409;42.620;23.316;2022-10-16T00:06:01;92826.22;;;7.32;100.00
10716;BME280;5409;42.620;23.316;2022-10-16T00:08:29;92820.50;;;7.23;100.00
10716;BME280;5409;42.620;23.316;2022-10-16T00:11:00;92833.91;;;7.37;100.00
10716;BME280;5409;42.620;23.316;2022-10-16T00:13:27;92828.50;;;7.34;100.00
10716;BME280;5409;42.620;23.316;2022-10-16T00:15:55;92832.00;;;7.34;100.00
10716;BME280;5409;42.620;23.316;2022-10-16T00:18:24;92810.88;;;7.19;100.00
10716;BME280;5409;42.620;23.316;2022-10-16T00:20:51;92826.59;;;7.31;100.00
10716;BME280;5409;42.620;23.316;2022-10-16T00:23:18;92830.16;;;7.28;100.00
10716;BME280;5409;42.620;23.316;2022-10-16T00:25:54;92830.53;;;7.26;100.00
10716;BME280;5409;42.620;23.316;2022-10-16T00:28:22;92829.78;;;7.26;100.00
10716;BME280;5409;42.620;23.316;2022-10-16T00:30:49;92829.13;;;7.15;100.00
10716;BME280;5409;42.620;23.316;2022-10-16T00:33:15;92844.88;;;7.27;100.00
10716;BME280;5409;42.620;23.316;2022-10-16T00:35:44;92846.41;;;7.28;100.00
10716;BME280;5409;42.620;23.316;2022-10-16T00:38:11;92856.97;;;7.19;100.00
10716;BME280;5409;42.620;23.316;2022-10-16T00:40:37;92857.00;;;7.15;100.00
10716;BME280;5409;42.620;23.316;2022-10-16T00:43:12;92854.34;;;7.12;100.00
10716;BME280;5409;42.620;23.316;2022-10-16T00:45:39;92851.69;;;7.08;100.00
10716;BME280;5409;42.620;23.316;2022-10-16T00:48:10;92850.84;;;7.11;100.00
10716;BME280;5409;42.620;23.316;2022-10-16T00:50:40;92843.19;;;7.03;100.00
10716;BME280;5409;42.620;23.316;2022-10-16T00:53:10;92843.28;;;6.96;100.00
10716;BME280;5409;42.620;23.316;2022-10-16T00:55:38;92833.66;;;6.91;100.00
10716;BME280;5409;42.620;23.316;2022-10-16T00:58:05;92842.19;;;6.90;100.00
10716;BME280;5409;42.620;23.316;2022-10-16T01:00:32;92837.53;;;6.90;100.00
10716;BME280;5409;42.620;23.316;2022-10-16T01:03:00;92840.25;;;6.90;100.00
10716;BME280;5409;42.620;23.316;2022-10-16T01:05:32;92847.94;;;6.92;100.00
10716;BME280;5409;42.620;23.316;2022-10-16T01:08:06;92853.34;;;6.95;100.00
10716;BME280;5409;42.620;23.316;2022-10-16T01:10:39;92853.31;;;6.99;100.00
10716;BME280;5409;42.620;23.316;2022-10-16T01:13:10;92857.97;;;6.98;100.00
10716;BME280;5409;42.620;23.316;2022-10-16T01:15:41;92853.31;;;6.99;100.00
10716;BME280;5409;42.620;23.316;2022-10-16T01:18:13;92852.88;;;7.04;100.00
10716;BME280;5409;42.620;23.316;2022-10-16T01:20:44;92850.56;;;7.02;100.00
10716;BME280;5409;42.620;23.316;2022-10-16T01:23:27;92846.31;;;7.01;100.00
10716;BME280;5409;42.620;23.316;2022-10-16T01:26:11;92847.06;;;7.02;100.00
10716;BME280;5409;42.620;23.316;2022-10-16T01:28:45;92838.19;;;7.01;100.00
10716;BME280;5409;42.620;23.316;2022-10-16T01:31:18;92830.78;;;7.05;100.00
10716;BME280;5409;42.620;23.316;2022-10-16T01:33:47;92830.44;;;7.03;100.00
10716;BME280;5409;42.620;23.316;2022-10-16T01:36:21;92833.50;;;7.05;100.00
10716;BME280;5409;42.620;23.316;2022-10-16T01:38:52;92830.81;;;7.02;100.00
10716;BME280;5409;42.620;23.316;2022-10-16T01:41:26;92836.25;;;7.02;100.00
10716;BME280;5409;42.620;23.316;2022-10-16T01:43:58;92834.69;;;7.04;100.00
10716;BME280;5409;42.620;23.316;2022-10-16T01:46:30;92826.91;;;7.06;100.00
10716;BME280;5409;42.620;23.316;2022-10-16T01:48:59;92837.03;;;7.02;100.00
10716;BME280;5409;42.620;23.316;2022-10-16T01:51:28;92814.38;;;6.82;100.00
10716;BME280;5409;42.620;23.316;2022-10-16T01:53:58;92839.38;;;6.97;100.00
10716;BME280;5409;42.620;23.316;2022-10-16T01:56:27;92825.22;;;6.82;100.00
10716;BME280;5409;42.620;23.316;2022-10-16T01:58:59;92843.63;;;6.98;100.00
10716;BME280;5409;42.620;23.316;2022-10-16T02:01:29;92843.19;;;7.03;100.00
10716;BME280;5409;42.620;23.316;2022-10-16T02:04:02;92841.22;;;7.07;100.00
10716;BME280;5409;42.620;23.316;2022-10-16T02:06:31;92847.00;;;7.09;100.00
10716;BME280;5409;42.620;23.316;2022-10-16T02:08:59;92850.50;;;7.09;100.00
10716;BME280;5409;42.620;23.316;2022-10-16T02:11:25;92851.22;;;7.13;100.00
10716;BME280;5409;42.620;23.316;2022-10-16T02:13:57;92840.84;;;7.08;100.00
10716;BME280;5409;42.620;23.316;2022-10-16T02:16:32;92862.75;;;7.21;100.00
10716;BME280;5409;42.620;23.316;2022-10-16T02:18:59;92860.00;;;7.24;100.00
10716;BME280;5409;42.620;23.316;2022-10-16T02:21:29;92865.84;;;7.23;100.00
10716;BME280;5409;42.620;23.316;2022-10-16T02:24:02;92870.91;;;7.17;100.00
10716;BME280;5409;42.620;23.316;2022-10-16T02:26:33;92878.66;;;7.19;100.00
10716;BME280;5409;42.620;23.316;2022-10-16T02:29:06;92879.84;;;7.18;100.00
10716;BME280;5409;42.620;23.316;2022-10-16T02:31:39;92884.09;;;7.19;100.00
10716;BME280;5409;42.620;23.316;2022-10-16T02:34:08;92880.16;;;7.23;100.00
10716;BME280;5409;42.620;23.316;2022-10-16T02:36:37;92871.25;;;7.23;100.00
10716;BME280;5409;42.620;23.316;2022-10-16T02:39:06;92870.44;;;7.26;100.00
10716;BME280;5409;42.620;23.316;2022-10-16T02:41:33;92870.09;;;7.24;100.00
10716;BME280;5409;42.620;23.316;2022-10-16T02:44:00;92878.16;;;7.27;100.00
10716;BME280;5409;42.620;23.316;2022-10-16T02:46:28;92875.50;;;7.24;100.00
10716;BME280;5409;42.620;23.316;2022-10-16T02:48:55;92870.59;;;7.12;100.00
10716;BME280;5409;42.620;23.316;2022-10-16T02:51:22;92873.25;;;7.15;100.00
10716;BME280;5409;42.620;23.316;2022-10-16T02:53:48;92879.91;;;7.11;100.00
10716;BME280;5409;42.620;23.316;2022-10-16T02:56:15;92876.41;;;7.10;100.00
10716;BME280;5409;42.620;23.316;2022-10-16T02:58:42;92874.59;;;7.00;100.00
10716;BME280;5409;42.620;23.316;2022-10-16T03:01:08;92880.47;;;6.95;100.00
10716;BME280;5409;42.620;23.316;2022-10-16T03:03:39;92885.09;;;6.95;100.00
10716;BME280;5409;42.620;23.316;2022-10-16T03:06:05;92878.91;;;6.94;100.00
10716;BME280;5409;42.620;23.316;2022-10-16T03:08:32;92882.31;;;7.02;100.00
10716;BME280;5409;42.620;23.316;2022-10-16T03:10:59;92874.97;;;6.99;100.00
10716;BME280;5409;42.620;23.316;2022-10-16T03:13:25;92881.94;;;7.00;100.00
10716;BME280;5409;42.620;23.316;2022-10-16T03:15:52;92886.63;;;6.96;100.00
10716;BME280;5409;42.620;23.316;2022-10-16T03:18:19;92890.88;;;6.97;100.00
10716;BME280;5409;42.620;23.316;2022-10-16T03:20:47;92894.00;;;6.95;100.00
10716;BME280;5409;42.620;23.316;2022-10-16T03:23:14;92890.97;;;6.90;100.00
10716;BME280;5409;42.620;23.316;2022-10-16T03:25:40;92889.09;;;6.83;100.00
10716;BME280;5409;42.620;23.316;2022-10-16T03:28:07;92893.69;;;6.86;100.00
10716;BME280;5409;42.620;23.316;2022-10-16T03:30:34;92894.91;;;6.82;100.00
10716;BME280;5409;42.620;23.316;2022-10-16T03:33:01;92894.91;;;6.82;100.00
10716;BME280;5409;42.620;23.316;2022-10-16T03:35:27;92897.28;;;6.76;100.00
10716;BME280;5409;42.620;23.316;2022-10-16T03:37:56;92894.97;;;6.75;100.00
10716;BME280;5409;42.620;23.316;2022-10-16T03:40:23;92901.19;;;6.72;100.00
10716;BME280;5409;42.620;23.316;2022-10-16T03:42:50;92904.69;;;6.73;100.00
10716;BME280;5409;42.620;23.316;2022-10-16T03:45:16;92901.22;;;6.69;100.00
10716;BME280;5409;42.620;23.316;2022-10-16T03:47:43;92899.31;;;6.66;100.00
10716;BME280;5409;42.620;23.316;2022-10-16T03:50:10;92895.50;;;6.60;100.00
10716;BME280;5409;42.620;23.316;2022-10-16T03:52:36;92889.34;;;6.56;100.00
10716;BME280;5409;42.620;23.316;2022-10-16T03:55:06;92878.63;;;6.42;100.00
10716;BME280;5409;42.620;23.316;2022-10-16T03:57:33;92887.84;;;6.48;100.00
10716;BME280;5409;42.620;23.316;2022-10-16T03:59:59;92875.97;;;6.35;100.00
10716;BME280;5409;42.620;23.316;2022-10-16T04:02:26;92879.88;;;6.30;100.00
10716;BME280;5409;42.620;23.316;2022-10-16T04:04:53;92876.34;;;6.37;100.00
10716;BME280;5409;42.620;23.316;2022-10-16T04:07:19;92877.91;;;6.34;100.00
10716;BME280;5409;42.620;23.316;2022-10-16T04:09:46;92881.41;;;6.35;100.00
10716;BME280;5409;42.620;23.316;2022-10-16T04:12:14;92882.94;;;6.36;100.00
10716;BME280;5409;42.620;23.316;2022-10-16T04:14:41;92883.69;;;6.36;100.00
10716;BME280;5409;42.620;23.316;2022-10-16T04:17:07;92883.28;;;6.38;100.00
10716;BME280;5409;42.620;23.316;2022-10-16T04:19:34;92868.28;;;6.30;100.00
10716;BME280;5409;42.620;23.316;2022-10-16T04:22:01;92888.69;;;6.41;100.00
10716;BME280;5409;42.620;23.316;2022-10-16T04:24:27;92885.16;;;6.48;100.00
10716;BME280;5409;42.620;23.316;2022-10-16T04:26:54;92889.03;;;6.47;100.00
10716;BME280;5409;42.620;23.316;2022-10-16T04:29:22;92887.84;;;6.48;100.00
10716;BME280;5409;42.620;23.316;2022-10-16T04:31:49;92889.38;;;6.52;100.00
10716;BME280;5409;42.620;23.316;2022-10-16T04:34:16;92887.84;;;6.48;100.00
10716;BME280;5409;42.620;23.316;2022-10-16T04:36:42;92900.59;;;6.51;100.00
10716;BME280;5409;42.620;23.316;2022-10-16T04:39:09;92902.56;;;6.47;100.00
10716;BME280;5409;42.620;23.316;2022-10-16T04:41:36;92906.06;;;6.47;100.00
10716;BME280;5409;42.620;23.316;2022-10-16T04:44:02;92905.69;;;6.45;100.00
10716;BME280;5409;42.620;23.316;2022-10-16T04:46:30;92911.06;;;6.49;100.00
10716;BME280;5409;42.620;23.316;2022-10-16T04:48:58;92915.72;;;6.45;100.00
10716;BME280;5409;42.620;23.316;2022-10-16T04:51:24;92920.41;;;6.41;100.00
10716;BME280;5409;42.620;23.316;2022-10-16T04:53:53;92908.78;;;6.44;100.00
10716;BME280;5409;42.620;23.316;2022-10-16T04:56:20;92916.47;;;6.49;100.00
10716;BME280;5409;42.620;23.316;2022-10-16T04:58:47;92934.31;;;6.46;100.00
10716;BME280;5409;42.620;23.316;2022-10-16T05:01:13;92929.25;;;6.48;100.00
10716;BME280;5409;42.620;23.316;2022-10-16T05:03:41;92926.50;;;6.52;100.00
10716;BME280;5409;42.620;23.316;2022-10-16T05:06:08;92932.25;;;6.57;100.00
10716;BME280;5409;42.620;23.316;2022-10-16T05:08:35;92934.97;;;6.57;100.00
10716;BME280;5409;42.620;23.316;2022-10-16T05:11:01;92934.97;;;6.57;100.00
10716;BME280;5409;42.620;23.316;2022-10-16T05:13:28;92932.63;;;6.59;100.00
10716;BME280;5409;42.620;23.316;2022-10-16T05:15:55;92924.09;;;6.64;100.00
10716;BME280;5409;42.620;23.316;2022-10-16T05:18:22;92939.91;;;6.73;100.00
10716;BME280;5409;42.620;23.316;2022-10-16T05:20:50;92941.34;;;6.84;100.00
10716;BME280;5409;42.620;23.316;2022-10-16T05:23:17;92939.34;;;6.91;100.00
10716;BME280;5409;42.620;23.316;2022-10-16T05:25:52;92945.06;;;7.00;100.00
10716;BME280;5409;42.620;23.316;2022-10-16T05:28:18;92945.03;;;7.04;100.00
10716;BME280;5409;42.620;23.316;2022-10-16T05:30:45;92946.19;;;7.06;100.00
10716;BME280;5409;42.620;23.316;2022-10-16T05:33:12;92937.94;;;7.17;100.00
10716;BME280;5409;42.620;23.316;2022-10-16T05:35:38;92950.69;;;7.20;100.00
10716;BME280;5409;42.620;23.316;2022-10-16T05:38:06;92945.22;;;7.23;100.00
10716;BME280;5409;42.620;23.316;2022-10-16T05:40:33;92951.34;;;7.31;100.00
10716;BME280;5409;42.620;23.316;2022-10-16T05:43:00;92946.63;;;7.38;100.00
10716;BME280;5409;42.620;23.316;2022-10-16T05:45:27;92958.13;;;7.49;100.00
10716;BME280;5409;42.620;23.316;2022-10-16T05:47:53;92944.84;;;7.58;100.00
10716;BME280;5409;42.620;23.316;2022-10-16T05:50:20;92948.66;;;7.64;100.00
10716;BME280;5409;42.620;23.316;2022-10-16T05:52:47;92967.53;;;7.75;100.00
10716;BME280;5409;42.620;23.316;2022-10-16T05:55:15;92965.97;;;7.77;100.00
10716;BME280;5409;42.620;23.316;2022-10-16T05:57:42;92964.28;;;7.87;100.00
10716;BME280;5409;42.620;23.316;2022-10-16T06:00:10;92972.72;;;7.95;100.00
10716;BME280;5409;42.620;23.316;2022-10-16T06:02:37;92976.84;;;8.03;100.00
10716;BME280;5409;42.620;23.316;2022-10-16T06:05:04;92979.63;;;8.33;100.00
10716;BME280;5409;42.620;23.316;2022-10-16T06:07:34;92992.69;;;8.95;100.00
10716;BME280;5409;42.620;23.316;2022-10-16T06:10:01;92989.22;;;9.17;100.00
10716;BME280;5409;42.620;23.316;2022-10-16T06:12:30;92994.88;;;9.49;100.00
10716;BME280;5409;42.620;23.316;2022-10-16T06:14:57;93006.50;;;9.72;100.00
10716;BME280;5409;42.620;23.316;2022-10-16T06:17:24;93002.22;;;9.94;100.00
10716;BME280;5409;42.620;23.316;2022-10-16T06:19:50;93017.25;;;10.02;100.00
10716;BME280;5409;42.620;23.316;2022-10-16T06:22:17;93016.94;;;9.97;100.00
10716;BME280;5409;42.620;23.316;2022-10-16T06:24:44;93023.13;;;10.01;100.00
10716;BME280;5409;42.620;23.316;2022-10-16T06:27:11;93032.41;;;10.42;100.00
10716;BME280;5409;42.620;23.316;2022-10-16T06:29:39;93032.06;;;11.11;100.00
10716;BME280;5409;42.620;23.316;2022-10-16T06:32:08;93045.56;;;11.49;100.00
10716;BME280;5409;42.620;23.316;2022-10-16T06:34:35;93034.75;;;11.78;100.00
10716;BME280;5409;42.620;23.316;2022-10-16T06:37:01;93038.63;;;12.09;100.00
10716;BME280;5409;42.620;23.316;2022-10-16T06:39:28;93054.38;;;12.33;100.00
10716;BME280;5409;42.620;23.316;2022-10-16T06:41:55;93051.53;;;12.08;100.00
10716;BME280;5409;42.620;23.316;2022-10-16T06:44:21;93056.38;;;11.72;100.00
10716;BME280;5409;42.620;23.316;2022-10-16T06:46:49;93060.81;;;11.82;100.00
10716;BME280;5409;42.620;23.316;2022-10-16T06:49:16;93046.97;;;11.41;100.00
10716;BME280;5409;42.620;23.316;2022-10-16T06:51:48;93051.34;;;11.55;100.00
10716;BME280;5409;42.620;23.316;2022-10-16T06:54:15;93057.19;;;11.53;100.00
10716;BME280;5409;42.620;23.316;2022-10-16T06:56:43;93062.94;;;11.59;100.00
10716;BME280;5409;42.620;23.316;2022-10-16T06:59:09;93065.34;;;11.22;100.00
10716;BME280;5409;42.620;23.316;2022-10-16T07:01:39;93062.53;;;10.74;100.00
10716;BME280;5409;42.620;23.316;2022-10-16T07:04:07;93067.50;;;10.59;100.00
10716;BME280;5409;42.620;23.316;2022-10-16T07:06:34;93065.34;;;10.31;100.00
10716;BME280;5409;42.620;23.316;2022-10-16T07:09:04;93068.13;;;10.28;100.00
10716;BME280;5409;42.620;23.316;2022-10-16T07:11:31;93038.72;;;9.97;100.00
10716;BME280;5409;42.620;23.316;2022-10-16T07:13:58;93065.44;;;10.05;100.00
10716;BME280;5409;42.620;23.316;2022-10-16T07:16:27;93067.69;;;10.10;100.00
10716;BME280;5409;42.620;23.316;2022-10-16T07:18:55;93069.00;;;10.02;100.00
10716;BME280;5409;42.620;23.316;2022-10-16T07:21:26;93066.03;;;9.93;100.00
10716;BME280;5409;42.620;23.316;2022-10-16T07:23:55;93069.97;;;9.92;100.00
10716;BME280;5409;42.620;23.316;2022-10-16T07:26:22;93081.13;;;9.98;100.00
10716;BME280;5409;42.620;23.316;2022-10-16T07:28:49;93081.13;;;10.01;100.00
10716;BME280;5409;42.620;23.316;2022-10-16T07:31:18;93084.13;;;10.07;100.00
10716;BME280;5409;42.620;23.316;2022-10-16T07:33:46;93079.25;;;10.18;100.00
10716;BME280;5409;42.620;23.316;2022-10-16T07:36:14;93084.13;;;10.26;100.00
10716;BME280;5409;42.620;23.316;2022-10-16T07:38:44;93083.66;;;10.31;100.00
10716;BME280;5409;42.620;23.316;2022-10-16T07:41:14;93074.34;;;10.28;100.00
10716;BME280;5409;42.620;23.316;2022-10-16T07:43:45;93089.50;;;10.49;100.00
10716;BME280;5409;42.620;23.316;2022-10-16T07:46:12;93085.38;;;10.60;100.00
10716;BME280;5409;42.620;23.316;2022-10-16T07:48:42;93089.50;;;10.68;100.00
10716;BME280;5409;42.620;23.316;2022-10-16T07:51:13;93091.41;;;10.71;100.00
10716;BME280;5409;42.620;23.316;2022-10-16T07:53:40;93094.00;;;10.78;100.00
10716;BME280;5409;42.620;23.316;2022-10-16T07:56:12;93096.97;;;10.84;100.00
10716;BME280;5409;42.620;23.316;2022-10-16T07:58:39;93101.25;;;10.85;100.00
10716;BME280;5409;42.620;23.316;2022-10-16T08:01:07;93095.38;;;10.86;100.00
10716;BME280;5409;42.620;23.316;2022-10-16T08:03:35;93103.28;;;10.81;100.00
10716;BME280;5409;42.620;23.316;2022-10-16T08:06:17;93098.88;;;10.87;100.00
10716;BME280;5409;42.620;23.316;2022-10-16T08:08:44;93088.16;;;10.96;100.00
10716;BME280;5409;42.620;23.316;2022-10-16T08:11:12;93104.50;;;11.15;100.00
10716;BME280;5409;42.620;23.316;2022-10-16T08:13:45;93109.50;;;11.17;100.00
10716;BME280;5409;42.620;23.316;2022-10-16T08:16:13;93102.81;;;11.21;100.00
10716;BME280;5409;42.620;23.316;2022-10-16T08:18:43;93103.59;;;11.37;100.00
10716;BME280;5409;42.620;23.316;2022-10-16T08:21:14;93118.53;;;11.49;100.00
10716;BME280;5409;42.620;23.316;2022-10-16T08:23:41;93106.63;;;11.59;100.00
10716;BME280;5409;42.620;23.316;2022-10-16T08:26:09;93097.59;;;11.62;100.00
10716;BME280;5409;42.620;23.316;2022-10-16T08:28:38;93113.13;;;11.81;100.00
10716;BME280;5409;42.620;23.316;2022-10-16T08:31:07;93109.72;;;11.93;100.00
10716;BME280;5409;42.620;23.316;2022-10-16T08:33:33;93118.31;;;12.07;100.00
10716;BME280;5409;42.620;23.316;2022-10-16T08:36:01;93098.59;;;12.00;100.00
10716;BME280;5409;42.620;23.316;2022-10-16T08:38:28;93115.41;;;12.14;100.00
10716;BME280;5409;42.620;23.316;2022-10-16T08:41:08;93120.16;;;12.26;100.00
10716;BME280;5409;42.620;23.316;2022-10-16T08:44:04;93128.19;;;12.33;100.00
10716;BME280;5409;42.620;23.316;2022-10-16T08:46:41;93114.91;;;12.48;100.00
10716;BME280;5409;42.620;23.316;2022-10-16T08:49:12;93108.50;;;12.54;100.00
10716;BME280;5409;42.620;23.316;2022-10-16T08:51:40;93129.06;;;12.87;96.12
10716;BME280;5409;42.620;23.316;2022-10-16T08:54:26;93135.69;;;13.02;91.75
10716;BME280;5409;42.620;23.316;2022-10-16T08:56:55;93135.97;;;13.20;94.39
10716;BME280;5409;42.620;23.316;2022-10-16T08:59:23;93135.13;;;13.48;90.20
10716;BME280;5409;42.620;23.316;2022-10-16T09:01:51;93138.75;;;13.69;88.64
10716;BME280;5409;42.620;23.316;2022-10-16T09:04:43;93144.25;;;13.82;86.36
10716;BME280;5409;42.620;23.316;2022-10-16T09:07:17;93138.97;;;14.00;87.03
10716;BME280;5409;42.620;23.316;2022-10-16T09:10:01;93142.81;;;14.15;82.54
10716;BME280;5409;42.620;23.316;2022-10-16T09:12:36;93135.97;;;14.32;83.76
10716;BME280;5409;42.620;23.316;2022-10-16T09:15:15;93137.78;;;14.47;81.75
10716;BME280;5409;42.620;23.316;2022-10-16T09:17:52;93133.94;;;14.57;80.48
10716;BME280;5409;42.620;23.316;2022-10-16T09:20:28;93141.88;;;14.77;78.49
10716;BME280;5409;42.620;23.316;2022-10-16T09:23:10;93137.22;;;14.86;75.46
10716;BME280;5409;42.620;23.316;2022-10-16T09:25:39;93147.38;;;14.98;76.74
10716;BME280;5409;42.620;23.316;2022-10-16T09:28:07;93127.28;;;15.01;77.56
10716;BME280;5409;42.620;23.316;2022-10-16T09:30:37;93122.34;;;14.96;75.67
10716;BME280;5409;42.620;23.316;2022-10-16T09:33:04;93138.59;;;15.24;72.85
10716;BME280;5409;42.620;23.316;2022-10-16T09:35:36;93142.56;;;15.45;73.20
10716;BME280;5409;42.620;23.316;2022-10-16T09:38:04;93155.44;;;15.57;71.42
10716;BME280;5409;42.620;23.316;2022-10-16T09:40:33;93141.56;;;15.60;69.28
10716;BME280;5409;42.620;23.316;2022-10-16T09:43:20;93142.09;;;15.77;66.79
10716;BME280;5409;42.620;23.316;2022-10-16T09:45:57;93136.66;;;15.95;67.73
10716;BME280;5409;42.620;23.316;2022-10-16T09:48:27;93131.56;;;16.14;69.34
10716;BME280;5409;42.620;23.316;2022-10-16T09:50:59;93125.69;;;16.34;69.00
10716;BME280;5409;42.620;23.316;2022-10-16T09:53:38;93134.25;;;16.45;66.16
10716;BME280;5409;42.620;23.316;2022-10-16T09:56:05;93131.50;;;16.45;62.81
10716;BME280;5409;42.620;23.316;2022-10-16T09:58:33;93125.78;;;16.30;63.46
10716;BME280;5409;42.620;23.316;2022-10-16T10:01:01;93128.88;;;16.32;61.58
10716;BME280;5409;42.620;23.316;2022-10-16T10:03:36;93120.34;;;16.48;63.64
10716;BME280;5409;42.620;23.316;2022-10-16T10:06:14;93126.34;;;16.65;62.03
10716;BME280;5409;42.620;23.316;2022-10-16T10:08:53;93117.47;;;16.61;61.72
10716;BME280;5409;42.620;23.316;2022-10-16T10:11:42;93118.56;;;16.81;62.58
10716;BME280;5409;42.620;23.316;2022-10-16T10:14:20;93111.97;;;16.88;61.46
10716;BME280;5409;42.620;23.316;2022-10-16T10:16:50;93109.50;;;17.94;55.72
10716;BME280;5409;42.620;23.316;2022-10-16T10:19:19;93100.84;;;18.65;53.65
10716;BME280;5409;42.620;23.316;2022-10-16T10:21:46;93092.88;;;19.05;48.75
10716;BME280;5409;42.620;23.316;2022-10-16T10:24:14;93080.13;;;19.22;45.76
10716;BME280;5409;42.620;23.316;2022-10-16T10:26:48;93084.16;;;19.50;46.62
10716;BME280;5409;42.620;23.316;2022-10-16T10:29:24;93076.31;;;20.06;47.26
10716;BME280;5409;42.620;23.316;2022-10-16T10:32:03;93080.53;;;19.58;44.65
10716;BME280;5409;42.620;23.316;2022-10-16T10:34:48;93081.28;;;19.59;45.60
10716;BME280;5409;42.620;23.316;2022-10-16T10:37:29;93072.19;;;20.70;40.53
10716;BME280;5409;42.620;23.316;2022-10-16T10:40:03;93075.63;;;21.00;39.95
10716;BME280;5409;42.620;23.316;2022-10-16T10:42:40;93073.28;;;21.89;39.70
10716;BME280;5409;42.620;23.316;2022-10-16T10:45:24;93066.81;;;22.76;38.13
10716;BME280;5409;42.620;23.316;2022-10-16T10:48:12;93069.75;;;22.61;36.22
10716;BME280;5409;42.620;23.316;2022-10-16T10:50:44;93061.44;;;23.14;34.01
10716;BME280;5409;42.620;23.316;2022-10-16T10:53:25;93062.69;;;23.08;33.96
10716;BME280;5409;42.620;23.316;2022-10-16T10:56:04;93059.91;;;23.08;34.58
10716;BME280;5409;42.620;23.316;2022-10-16T11:01:41;93059.34;;;23.78;34.36
10716;BME280;5409;42.620;23.316;2022-10-16T11:07:32;93057.34;;;24.01;32.77
10716;BME280;5409;42.620;23.316;2022-10-16T11:10:04;93044.38;;;23.70;32.51
10716;BME280;5409;42.620;23.316;2022-10-16T11:12:39;93052.50;;;24.07;32.41
10716;BME280;5409;42.620;23.316;2022-10-16T11:15:14;93052.50;;;24.23;30.23
10716;BME280;5409;42.620;23.316;2022-10-16T11:17:47;93049.75;;;24.12;32.02
10716;BME280;5409;42.620;23.316;2022-10-16T11:20:20;93046.44;;;24.52;30.81
10716;BME280;5409;42.620;23.316;2022-10-16T11:22:52;93044.16;;;24.01;29.39
10716;BME280;5409;42.620;23.316;2022-10-16T11:25:21;93053.78;;;24.00;29.35
10716;BME280;5409;42.620;23.316;2022-10-16T11:27:51;93040.03;;;23.47;30.60
10716;BME280;5409;42.620;23.316;2022-10-16T11:30:25;93034.94;;;23.29;30.99
10716;BME280;5409;42.620;23.316;2022-10-16T11:33:10;93044.41;;;23.87;30.85
10716;BME280;5409;42.620;23.316;2022-10-16T11:35:49;93025.38;;;23.63;31.51
10716;BME280;5409;42.620;23.316;2022-10-16T11:38:26;93042.38;;;23.98;29.75
10716;BME280;5409;42.620;23.316;2022-10-16T11:40:59;93044.91;;;23.91;29.82
10716;BME280;5409;42.620;23.316;2022-10-16T11:43:31;93032.19;;;23.46;30.76
10716;BME280;5409;42.620;23.316;2022-10-16T11:46:04;93044.69;;;23.83;30.12
10716;BME280;5409;42.620;23.316;2022-10-16T11:48:36;93041.38;;;24.28;30.25
10716;BME280;5409;42.620;23.316;2022-10-16T11:51:11;93043.63;;;24.41;29.14
10716;BME280;5409;42.620;23.316;2022-10-16T11:53:45;93047.69;;;24.29;28.96
10716;BME280;5409;42.620;23.316;2022-10-16T11:56:16;93045.66;;;24.51;30.50
10716;BME280;5409;42.620;23.316;2022-10-16T11:58:51;93045.56;;;24.90;30.44
10716;BME280;5409;42.620;23.316;2022-10-16T12:01:24;93048.78;;;25.05;29.49
10716;BME280;5409;42.620;23.316;2022-10-16T12:04:02;93046.63;;;24.70;28.79
10716;BME280;5409;42.620;23.316;2022-10-16T12:06:35;93039.00;;;24.82;28.11
10716;BME280;5409;42.620;23.316;2022-10-16T12:09:05;93046.84;;;24.89;28.54
10716;BME280;5409;42.620;23.316;2022-10-16T12:11:38;93047.28;;;25.04;28.88
10716;BME280;5409;42.620;23.316;2022-10-16T12:14:22;93049.78;;;25.24;26.89
10716;BME280;5409;42.620;23.316;2022-10-16T12:16:55;93042.56;;;24.77;29.26
10716;BME280;5409;42.620;23.316;2022-10-16T12:19:23;93049.97;;;24.58;30.27
10716;BME280;5409;42.620;23.316;2022-10-16T12:21:52;93048.19;;;24.55;32.88
10716;BME280;5409;42.620;23.316;2022-10-16T12:24:29;93049.34;;;24.92;28.50
10716;BME280;5409;42.620;23.316;2022-10-16T12:26:57;93049.47;;;24.16;26.99
10716;BME280;5409;42.620;23.316;2022-10-16T12:29:32;93042.03;;;23.36;28.73
10716;BME280;5409;42.620;23.316;2022-10-16T12:32:00;93047.91;;;23.65;31.12
10716;BME280;5409;42.620;23.316;2022-10-16T12:34:29;93047.66;;;23.63;33.11
10716;BME280;5409;42.620;23.316;2022-10-16T12:37:09;93053.44;;;23.49;30.61
10716;BME280;5409;42.620;23.316;2022-10-16T12:39:38;93059.03;;;22.85;30.91
10716;BME280;5409;42.620;23.316;2022-10-16T12:42:20;93053.78;;;22.51;30.08
10716;BME280;5409;42.620;23.316;2022-10-16T12:44:47;93045.84;;;22.75;34.59
10716;BME280;5409;42.620;23.316;2022-10-16T12:47:21;93049.44;;;22.86;34.99
10716;BME280;5409;42.620;23.316;2022-10-16T12:49:50;93046.41;;;22.95;36.70
10716;BME280;5409;42.620;23.316;2022-10-16T12:52:25;93056.66;;;22.31;38.56
10716;BME280;5409;42.620;23.316;2022-10-16T12:54:56;93059.53;;;21.55;41.82
10716;BME280;5409;42.620;23.316;2022-10-16T12:57:36;93062.84;;;20.68;43.94
10716;BME280;5409;42.620;23.316;2022-10-16T13:00:14;93060.25;;;19.96;44.56
10716;BME280;5409;42.620;23.316;2022-10-16T13:03:22;93059.09;;;19.25;46.18
10716;BME280;5409;42.620;23.316;2022-10-16T13:06:04;93064.91;;;17.86;53.59
10716;BME280;5409;42.620;23.316;2022-10-16T13:08:49;93077.53;;;16.83;60.52
10716;BME280;5409;42.620;23.316;2022-10-16T13:11:41;93063.28;;;16.31;64.61
10716;BME280;5409;42.620;23.316;2022-10-16T13:14:22;93065.59;;;15.84;68.94
10716;BME280;5409;42.620;23.316;2022-10-16T13:16:59;93065.38;;;15.30;71.75
10716;BME280;5409;42.620;23.316;2022-10-16T13:19:33;93062.66;;;14.87;76.72
10716;BME280;5409;42.620;23.316;2022-10-16T13:22:10;93057.22;;;14.54;77.58